Arthurdale, West Virginia
Current Conditions -  °F | °C
As of 8:53 AM on Sunday 25 Jan 2015 (Local Time) from KMGW Reporting Station
Haze Haze  
Wind Chill: 34°   Ceiling: 3800
Heat Index: 34°   Visibility: 5mi
Dew Point: 29°   Wind: 3mph
Humidity: 82%   Direction: 220°SW
Pressure: 29.79"   Gusts: NA
Location:  39.49°N, 79.82°W
Report Text: KMGW 251353Z 22003KT 5SM HZ OVC038 01/M02 A2979 RMK AO2 SLP099 T00111017
Loading
Personal Weather Stations






























Interactive Weather Map New forecast layout! Learn more

10-Day Weather Forecast

Advertisements
Track Severe Weather on mobile